KSJT

San Angelo Regional / Mathis Field Airport

San Angelo, Texas, USA
KSJT 251745Z 2518/2618 01013G19KT P6SM VCSH BKN015 FM252300 36010KT P6SM BKN050 FM260200 22005KT P6SM SKC
Issued Valid From Valid To
Apr-25 @ 17:45 UTC
(22 minutes ago)
Apr-25 @ 18:00 UTC
(7 minutes ago)
Apr-26 @ 18:00 UTC
(in 24 hours)
Apr-25 @ 18:00 to Apr-25 @ 23:00
KSJT 251745Z 2518/2618 01013G19KT P6SM VCSH BKN015
Wind Visibility Clouds
10° at 13 knots
 Gusting to 19 knots
Greater than 6 miles
  • Broken at 1,500' AGL
From Apr-25 @ 23:00 to Apr-26 @ 02:00
FM252300 36010KT P6SM BKN050
Wind Visibility Clouds
360° at 10 knots Greater than 6 miles
  • Broken at 5,000' AGL
From Apr-26 @ 02:00 to Apr-26 @ 18:00
FM260200 22005KT P6SM SKC
Wind Visibility Clouds
220° at 5 knots Greater than 6 miles
  • Clear skies
KSJT 251745Z 2518/2618 01013G19KT P6SM VCSH BKN015 FM252300 36010KT P6SM BKN050 FM260200 22005KT P6SM SKC
Issued Apr-25 @ 17:45 UTC
(22 minutes ago)
Valid From Apr-25 @ 18:00 UTC
(7 minutes ago)
Valid To Apr-26 @ 18:00 UTC
(in 24 hours)
Apr-25 @ 18:00 - Apr-25 @ 23:00
Wind Visibility
10° at 13 knots
 Gusting to 19 knots
Greater than 6 miles
Clouds
  • Broken at 1,500' AGL
From Apr-25 @ 23:00 - Apr-26 @ 02:00
Wind Visibility
360° at 10 knots Greater than 6 miles
Clouds
  • Broken at 5,000' AGL
From Apr-26 @ 02:00 - Apr-26 @ 18:00
Wind Visibility
220° at 5 knots Greater than 6 miles
Clouds
  • Clear skies